• Join FlightAware (Why Join?)
  • Login
  • US Flag 
 
12:16PM EST


 

Airport Tracker/Info


-or-


 

Live Flight TrackerFlight Track Log ✈ XOJ756 ✈ 14-Jun-2013 ✈ KOAK - KFOK

Flight Track Log - Related Links

Times and Time Zones

All times are in EDT time to prevent confusion due to time zone crossing. See the XOJ756 flight status page for this flight to view local times or setup timezone preferences in your user account.

Time Position Orientation Groundspeed Altitude Reporting Facility
EDT Latitude Longitude Course Direction KTS MPH feet Rate Location/Type
12:24PM 37.7500 -122.2833 71° East 216 249 2,500  Level Northern Cal TRACON
12:25PM 37.7833 -122.3333 310° West 219 252 5,600 2,700 Climbing Northern Cal TRACON
12:26PM 37.8333 -122.3333 360° North 253 291 8,000 2,100 Climbing Northern Cal TRACON
12:27PM 37.8500 -122.2500 76° East 271 312 10,100 1,680 Climbing Northern Cal TRACON
12:28PM 37.8667 -122.1500 78° East 324 373 11,200 1,080 Climbing Northern Cal TRACON
12:29PM 37.9514 -121.4060 71° East  Level FlightAware Approximate
12:29PM 37.8942 -122.0239 75° East 351 404 12,300  Level Oakland Center
12:30PM 37.9189 -121.8917 77° East 378 435 13,900 1,680 Climbing Oakland Center
12:31PM 37.9419 -121.7547 78° East 393 452 15,800 1,800 Climbing Oakland Center
12:32PM 37.9675 -121.6167 77° East 401 461 17,600 1,920 Climbing Oakland Center
12:33PM 37.9981 -121.4467 77° East 408 470 19,800 1,800 Climbing Oakland Center
12:34PM 38.0222 -121.3042 78° East 412 474 21,400 1,500 Climbing Oakland Center
12:35PM 38.0478 -121.1583 77° East 418 481 22,900 1,440 Climbing Oakland Center
12:36PM 38.0750 -121.0075 77° East 431 496 24,400 1,440 Climbing Oakland Center
12:37PM 38.1097 -120.8550 74° East 445 512 25,900 1,440 Climbing Oakland Center
12:38PM 38.1481 -120.7014 72° East 454 522 27,400 1,440 Climbing Oakland Center
12:39PM 38.1856 -120.5419 73° East 466 536 28,900 1,560 Climbing Oakland Center
12:40PM 38.2294 -120.3467 74° East 476 548 30,700 1,560 Climbing Oakland Center
12:41PM 38.2564 -120.1781 78° East 486 559 32,200 1,440 Climbing Oakland Center
12:42PM 38.2864 -120.0081 77° East 495 570 33,700 1,440 Climbing Oakland Center
12:43PM 38.3144 -119.8353 78° East 499 574 35,200 1,440 Climbing Oakland Center
12:44PM 38.3442 -119.6606 78° East 505 581 36,700 1,260 Climbing Oakland Center
12:45PM 38.3733 -119.4833 78° East 509 586 37,900 1,140 Climbing Oakland Center
12:46PM 38.4047 -119.2936 78° East 515 593 39,100 900 Climbing Oakland Center
12:47PM 38.4339 -119.1125 78° East 524 603 39,800 600 Climbing Oakland Center
12:48PM 38.4625 -118.9281 79° East 530 610 40,400 600 Climbing Oakland Center
12:49PM 38.4917 -118.7464 78° East 528 608 41,100 600 Climbing Oakland Center
12:50PM 38.5264 -118.5292 78° East 524 603 41,700 480 Climbing Oakland Center
12:51PM 38.5547 -118.3464 79° East 528 608 42,100 420 Climbing Oakland Center
12:52PM 38.5836 -118.1628 79° East 529 609 42,600 360 Climbing Oakland Center
12:53PM 38.6092 -117.9908 79° East 526 605 42,900 180 Climbing Oakland Center
12:54PM 38.6375 -117.8072 79° East 525 604 43,000  Climbing Oakland Center
12:55PM 38.6639 -117.6233 80° East 523 602 43,000  Level Oakland Center
12:56PM 38.6917 -117.4364 79° East 528 608 43,000  Level Oakland Center
12:57PM 38.7075 -117.3244 80° East 530 610 43,000  Level Salt Lake Center
12:58PM 38.7344 -117.1358 80° East 533 613 43,000  Level Salt Lake Center
12:58PM 38.7461 -117.0606 79° East 533 613 43,000  Level Oakland Center
01:00PM 38.7786 -116.8333 80° East 535 616 43,000  Level Oakland Center
01:00PM 38.7878 -116.7569 81° East 537 618 43,000  Level Salt Lake Center
01:01PM 38.8136 -116.5686 80° East 535 616 43,000  Level Salt Lake Center
01:02PM 38.8297 -116.4553 80° East 536 617 43,000  Level Oakland Center
01:03PM 38.8561 -116.2664 80° East 536 617 43,000  Level Oakland Center
01:04PM 38.8794 -116.0897 80° East 536 617 43,000  Level Oakland Center
01:04PM 38.8947 -115.9650 81° East 533 613 43,000  Level Salt Lake Center
01:05PM 38.9200 -115.7769 80° East 534 615 43,000  Level Salt Lake Center
01:06PM 38.9478 -115.5889 79° East 535 616 43,000  Level Salt Lake Center
01:07PM 38.9825 -115.4033 76° East 535 616 43,000  Level Salt Lake Center
01:08PM 39.0197 -115.1994 77° East 538 619 43,000  Level Salt Lake Center
01:09PM 39.0533 -115.0122 77° East 538 619 43,000  Level Salt Lake Center
01:10PM 39.0853 -114.8261 77° East 535 616 43,000  Level Salt Lake Center
01:11PM 39.1194 -114.6369 77° East 540 621 43,000  Level Salt Lake Center
01:12PM 39.1517 -114.4503 77° East 538 619 43,000  Level Salt Lake Center
01:13PM 39.1886 -114.2250 78° East 536 617 43,000  Level Salt Lake Center
01:14PM 39.2206 -114.0369 78° East 536 617 43,000  Level Salt Lake Center
01:16PM 39.2522 -113.8483 78° East 538 619 43,000  Level Salt Lake Center
01:17PM 39.2831 -113.6600 78° East 537 618 43,000  Level Salt Lake Center
01:18PM 39.3133 -113.4689 78° East 541 623 43,000  Level Salt Lake Center
01:19PM 39.3439 -113.2794 78° East 539 620 43,000  Level Salt Lake Center
01:20PM 39.3803 -113.0508 78° East 541 623 43,000  Level Salt Lake Center
01:21PM 39.4111 -112.8586 78° East 544 626 43,000  Level Salt Lake Center
01:22PM 39.4406 -112.6669 79° East 543 625 43,000  Level Salt Lake Center
01:23PM 39.4714 -112.4675 79° East 544 626 43,000  Level Salt Lake Center
01:24PM 39.5000 -112.2747 79° East 549 632 43,000  Level Salt Lake Center
01:25PM 39.5294 -112.0819 79° East 550 633 43,000  Level Salt Lake Center
01:26PM 39.5567 -111.8881 80° East 551 634 43,000  Level Salt Lake Center
01:27PM 39.5908 -111.6553 79° East 552 635 43,000  Level Salt Lake Center
01:28PM 39.6183 -111.4608 80° East 551 634 43,000  Level Salt Lake Center
01:29PM 39.6486 -111.2533 79° East 552 635 43,000  Level Salt Lake Center
01:30PM 39.6769 -111.0667 79° East 550 633 43,000  Level Salt Lake Center
01:31PM 39.7050 -110.8486 80° East 550 633 43,000  Level Salt Lake Center
01:32PM 39.7314 -110.6622 80° East 548 631 43,000  Level Salt Lake Center
01:33PM 39.7561 -110.4761 80° East 546 628 43,000  Level Salt Lake Center
01:34PM 39.7839 -110.2597 80° East 544 626 43,000  Level Salt Lake Center
01:35PM 39.8089 -110.0742 80° East 544 626 43,000  Level Salt Lake Center
01:36PM 39.8369 -109.8553 80° East 549 632 43,000  Level Salt Lake Center
01:37PM 39.8556 -109.6983 81° East 545 627 43,000  Level Denver Center
01:38PM 39.8806 -109.5106 80° East 548 631 43,000  Level Denver Center
01:39PM 39.9078 -109.2900 81° East 550 633 43,000  Level Denver Center
01:40PM 39.9308 -109.1011 81° East 548 631 43,000  Level Denver Center
01:41PM 39.9583 -108.8789 81° East 551 634 43,000  Level Denver Center
01:42PM 39.9811 -108.6869 81° East 552 635 43,000  Level Denver Center
01:43PM 40.0025 -108.4944 82° East 554 638 43,000  Level Denver Center
01:44PM 40.0275 -108.2711 82° East 554 638 43,000  Level Denver Center
01:45PM 40.0492 -108.0819 81° East 551 634 43,000  Level Denver Center
01:46PM 40.0828 -107.8594 79° East 556 640 43,000  Level Denver Center
01:47PM 40.1242 -107.6717 74° East 560 644 43,000  Level Denver Center
01:48PM 40.1756 -107.4547 73° East 560 644 43,000  Level Denver Center
01:49PM 40.2189 -107.2672 73° East 561 646 43,000  Level Denver Center
01:50PM 40.2675 -107.0467 74° East 564 649 43,000  Level Denver Center
01:51PM 40.3119 -106.8525 73° East 563 648 43,000  Level Denver Center
01:53PM 40.3564 -106.6542 74° East 564 649 43,000  Level Denver Center
01:54PM 40.3997 -106.4492 74° East 565 650 43,000  Level Denver Center
01:55PM 40.4425 -106.2603 73° East 565 650 43,000  Level Denver Center
01:56PM 40.4897 -106.0394 74° East 559 643 43,000  Level Denver Center
01:57PM 40.5322 -105.8400 74° East 564 649 43,000  Level Denver Center
01:58PM 40.5733 -105.6411 75° East 564 649 43,000  Level Denver Center
01:59PM 40.6158 -105.4411 74° East 568 654 43,000  Level Denver Center
02:00PM 40.6564 -105.2408 75° East 566 651 43,000  Level Denver Center
02:01PM 40.7047 -105.0058 75° East 554 638 43,000  Level Denver Center
02:02PM 40.7447 -104.8050 75° East 561 646 43,000  Level Denver Center
02:03PM 40.7850 -104.6069 75° East 559 643 43,000  Level Denver Center
02:04PM 40.8239 -104.4064 76° East 563 648 43,000  Level Denver Center
02:05PM 40.8636 -104.2072 75° East 562 647 43,000  Level Denver Center
02:06PM 40.9022 -104.0058 76° East 564 649 43,000  Level Denver Center
02:07PM 40.9419 -103.8044 75° East 566 651 43,000  Level Denver Center
02:08PM 40.9872 -103.5644 76° East 561 646 43,000  Level Denver Center
02:09PM 41.0242 -103.3675 76° East 561 646 43,000  Level Denver Center
02:10PM 41.0594 -103.1786 76° East 556 640 43,000  Level Denver Center
02:11PM 41.0925 -102.9719 78° East 554 638 43,000  Level Denver Center
02:12PM 41.1150 -102.7469 82° East 550 633 43,000  Level Denver Center
02:13PM 41.1297 -102.5539 84° East 550 633 43,000  Level Denver Center
02:14PM 41.1458 -102.3286 85° East 549 632 43,000  Level Denver Center
02:15PM 41.1650 -102.0722 84° East 548 631 43,000  Level Denver Center
02:17PM 41.1792 -101.8783 84° East 551 634 43,000  Level Denver Center
02:18PM 41.1953 -101.6519 85° East 551 634 43,000  Level Denver Center
02:19PM 41.2094 -101.4583 84° East 549 632 43,000  Level Denver Center
02:20PM 41.2225 -101.2636 85° East 549 632 43,000  Level Denver Center
02:21PM 41.2364 -101.0383 85° East 545 627 43,000  Level Denver Center
02:22PM 41.2489 -100.8456 85° East 544 626 43,000  Level Denver Center
02:23PM 41.2628 -100.6206 85° East 543 625 43,000  Level Denver Center
02:24PM 41.2756 -100.4289 85° East 540 621 43,000 180 Level Denver Center
02:25PM 41.2856 -100.2375 86° East 539 620 43,400 420 Climbing Denver Center
02:26PM 41.2969 -100.0164 86° East 537 618 43,900 480 Climbing Denver Center
02:27PM 41.3086 -99.8311 85° East 529 609 44,400 480 Climbing Denver Center
02:28PM 41.3189 -99.6142 86° East 526 605 44,900 240 Climbing Denver Center
02:29PM 41.3286 -99.4306 86° East 522 601 45,000  Climbing Denver Center
02:30PM 41.3375 -99.2381 86° East 527 606 45,000  Level Denver Center
02:31PM 41.3475 -99.0408 86° East 529 609 45,000  Level Denver Center
02:32PM 41.3578 -98.8392 86° East 534 615 45,000  Level Denver Center
02:33PM 41.3642 -98.6106 88° East 535 616 45,000  Level Minneapolis Center
02:34PM 41.3753 -98.3944 86° East 541 623 45,000  Level Minneapolis Center
02:35PM 41.3822 -98.1956 87° East 538 619 45,000  Level Minneapolis Center
02:36PM 41.3864 -98.0150 88° East 536 617 45,000  Level Minneapolis Center
02:37PM 41.3939 -97.7794 87° East 532 612 45,000  Level Minneapolis Center
02:38PM 41.3989 -97.5853 88° East 527 606 45,000  Level Minneapolis Center
02:39PM 41.4042 -97.3900 88° East 527 606 45,000  Level Minneapolis Center
02:40PM 41.4092 -97.1972 88° East 524 603 45,000  Level Minneapolis Center
02:41PM 41.4131 -97.0006 88° East 528 608 45,000  Level Minneapolis Center
02:42PM 41.4183 -96.8053 88° East 529 609 45,000  Level Minneapolis Center
02:43PM 41.4219 -96.5719 89° East 525 604 45,000  Level Minneapolis Center
02:44PM 41.4258 -96.3769 88° East 524 603 45,000  Level Minneapolis Center
02:46PM 41.4275 -96.1603 89° East 533 613 45,000  Level Minneapolis Center
02:47PM 41.4300 -95.9658 89° East 527 606 45,000  Level Minneapolis Center
02:48PM 41.4333 -95.7739 89° East 520 598 45,000  Level Minneapolis Center
02:49PM 41.4347 -95.5817 89° East 524 603 45,000  Level Minneapolis Center
02:50PM 41.4361 -95.3897 89° East 521 600 45,000  Level Minneapolis Center
02:51PM 41.4381 -95.1981 89° East 519 597 45,000  Level Minneapolis Center
02:52PM 41.4397 -95.0056 89° East 520 598 45,000  Level Minneapolis Center
02:53PM 41.4400 -94.7758 90° East 518 596 45,000  Level Minneapolis Center
02:54PM 41.4403 -94.5842 90° East 518 596 45,000  Level Minneapolis Center
02:55PM 41.4397 -94.3908 90° East 521 600 45,000  Level Minneapolis Center
02:56PM 41.4389 -94.1850 90° East 526 605 45,000  Level Minneapolis Center
02:57PM 41.4369 -93.9881 91° East 532 612 45,000  Level Minneapolis Center
02:58PM 41.4372 -93.7908 90° East 536 617 45,000  Level Minneapolis Center
02:59PM 41.4400 -93.5917 89° East 539 620 45,000  Level Minneapolis Center
03:00PM 41.4525 -93.3508 86° East 543 625 45,000  Level Minneapolis Center
03:01PM 41.4617 -93.1533 86° East 540 621 45,000  Level Minneapolis Center
03:02PM 41.4692 -92.9592 87° East 533 613 45,000  Level Minneapolis Center
03:03PM 41.4778 -92.7631 87° East 533 613 45,000  Level Minneapolis Center
03:04PM 41.4856 -92.5681 87° East 531 611 45,000  Level Minneapolis Center
03:05PM 41.4936 -92.3706 87° East 533 613 45,000  Level Minneapolis Center
03:06PM 41.5019 -92.1403 87° East 528 608 45,000  Level Chicago Center
03:07PM 41.5083 -91.9467 87° East 528 608 45,000  Level Chicago Center
03:08PM 41.5142 -91.7542 88° East 528 608 45,000  Level Chicago Center
03:09PM 41.5206 -91.5631 87° East 523 602 45,000  Level Chicago Center
03:10PM 41.5247 -91.3289 89° East 531 611 45,000  Level Chicago Center
03:11PM 41.5289 -91.1353 88° East 530 610 45,000  Level Chicago Center
03:12PM 41.5331 -90.9397 88° East 532 612 45,000  Level Chicago Center
03:13PM 41.5356 -90.7458 89° East 531 611 45,000  Level Chicago Center
03:14PM 41.5386 -90.5336 89° East 530 610 45,000  Level Chicago Center
03:16PM 41.5414 -90.3358 89° East 531 611 45,000  Level Chicago Center
03:17PM 41.5436 -90.1367 89° East 534 615 45,000  Level Chicago Center
03:18PM 41.5447 -89.9378 90° East 534 615 45,000  Level Chicago Center
03:19PM 41.5467 -89.7000 89° East 530 610 45,000  Level Chicago Center
03:20PM 41.5481 -89.5064 89° East 531 611 45,000  Level Chicago Center
03:21PM 41.5483 -89.3092 90° East 533 613 45,000  Level Chicago Center
03:22PM 41.5492 -89.1122 90° East 532 612 45,000  Level Chicago Center
03:23PM 41.5483 -88.8728 90° East 541 623 45,000  Level Chicago Center
03:24PM 41.5475 -88.6742 90° East 541 623 45,000  Level Chicago Center
03:25PM 41.5478 -88.4747 90° East 539 620 45,000  Level Chicago Center
03:26PM 41.5553 -88.2772 87° East 535 616 45,000  Level Chicago Center
03:27PM 41.5756 -88.0803 82° East 526 605 45,000  Level Chicago Center
03:28PM 41.5981 -87.8836 81° East 526 605 45,000  Level Chicago Center
03:29PM 41.6203 -87.6914 81° East 523 602 45,000  Level Chicago Center
03:30PM 41.6408 -87.5017 82° East 518 596 45,000  Level Chicago Center
03:31PM 41.6675 -87.2703 81° East 523 602 45,000  Level Chicago Center
03:32PM 41.6878 -87.0803 82° East 521 600 45,000  Level Chicago Center
03:33PM 41.7094 -86.8894 81° East 520 598 45,000  Level Chicago Center
03:34PM 41.7314 -86.6725 82° East 527 606 45,000  Level Chicago Center
03:35PM 41.7517 -86.4797 82° East 524 603 45,000  Level Chicago Center
03:36PM 41.7711 -86.2867 82° East 523 602 45,000  Level Chicago Center
03:37PM 41.7914 -86.0933 82° East 524 603 45,000  Level Chicago Center
03:38PM 41.8111 -85.8997 82° East 524 603 45,000  Level Chicago Center
03:39PM 41.8317 -85.7058 82° East 524 603 45,000  Level Chicago Center
03:40PM 41.8522 -85.5083 82° East 528 608 45,000  Level Chicago Center
03:41PM 41.8717 -85.3083 82° East 532 612 45,000  Level Chicago Center
03:42PM 41.8947 -85.0733 82° East 518 596 45,000  Level Chicago Center
03:43PM 41.9142 -84.8753 82° East 539 620 45,000  Level Chicago Center
03:45PM 41.9339 -84.6767 82° East 539 620 45,000  Level Chicago Center
03:46PM 41.9525 -84.4778 83° East 536 617 45,000  Level Chicago Center
03:47PM 41.9739 -84.2731 82° East 535 616 45,000  Level Chicago Center
03:47PM 41.9772 -84.2256 85° East 534 615 45,000  Level Cleveland Center
03:48PM 41.9936 -84.0281 84° East 534 615 45,000  Level Cleveland Center
03:49PM 42.0119 -83.8333 83° East 534 615 45,000  Level Cleveland Center
03:51PM 42.0475 -83.4381 83° East 534 615 45,000  Level Cleveland Center
03:52PM 42.0583 -83.2428 86° East 535 616 45,000  Level Cleveland Center
03:53PM 42.0650 -83.0389 87° East 535 616 45,000  Level Cleveland Center
03:54PM 42.0753 -82.8436 86° East 535 616 45,000  Level Cleveland Center
03:55PM 42.0853 -82.6481 86° East 535 616 45,000  Level Cleveland Center
03:56PM 42.0969 -82.4497 85° East 530 610 45,000  Level Cleveland Center
03:57PM 42.1086 -82.2289 86° East 538 619 45,000  Level Cleveland Center
03:58PM 42.1133 -82.0331 88° East 532 612 45,000  Level Cleveland Center
03:59PM 42.1178 -81.8317 88° East 532 612 45,000  Level Cleveland Center
04:00PM 42.1261 -81.6331 87° East 538 619 45,000  Level Cleveland Center
04:01PM 42.1339 -81.4317 87° East 533 613 45,000  Level Cleveland Center
04:02PM 42.1394 -81.2525 88° East 533 613 45,000  Level Cleveland Center
04:03PM 42.1467 -81.0564 87° East 533 613 45,000  Level Cleveland Center
04:04PM 42.1494 -80.8578 89° East 528 608 45,000  Level Cleveland Center
04:05PM 42.1517 -80.6644 89° East 528 608 45,000  Level Cleveland Center
04:06PM 42.1517 -80.4489 90° East 528 608 45,000  Level Cleveland Center
04:07PM 42.1533 -80.2500 89° East 528 608 45,000  Level Cleveland Center
04:08PM 42.1525 -80.0511 90° East 528 608 45,000  Level Cleveland Center
04:09PM 42.1536 -79.8747 89° East 528 608 45,000  Level Cleveland Center
04:10PM 42.1525 -79.6786 90° East 523 602 45,000  Level Cleveland Center
04:11PM 42.1528 -79.4853 90° East 523 602 45,000  Level Cleveland Center
04:12PM 42.1508 -79.3033 91° East 523 602 45,000  Level Cleveland Center
04:13PM 42.1500 -79.0681 90° East 528 608 45,000  Level Cleveland Center
04:14PM 42.1494 -78.8664 90° East 528 608 45,000  Level Cleveland Center
04:15PM 42.1483 -78.6731 90° East 533 613 45,000  Level Cleveland Center
04:16PM 42.1450 -78.4772 91° East 533 613 45,000  Level Cleveland Center
04:17PM 42.1431 -78.2700 91° East 533 613 45,000  Level Cleveland Center
04:18PM 42.1414 -78.0936 91° East 533 613 45,000  Level Cleveland Center
04:19PM 42.1331 -77.7817 92° East 523 602 45,000  Level New York Center
04:20PM 42.1300 -77.5828 91° East 529 609 45,000  Level New York Center
04:21PM 42.1247 -77.3808 92° East 539 620 45,000  Level New York Center
04:22PM 42.1211 -77.1819 91° East 539 620 45,000  Level New York Center
04:23PM 42.1169 -76.9858 92° East 539 620 45,000  Level New York Center
04:24PM 42.1106 -76.7839 92° East 539 620 45,000  Level New York Center
04:25PM 42.1058 -76.5850 92° East 539 620 45,000  Level New York Center
04:26PM 42.1008 -76.3861 92° East 539 620 45,000  Level New York Center
04:29PM 42.0858 -75.8756 92° East 523 602 45,000  Level Boston Center
04:30PM 42.0792 -75.6739 92° East 529 609 45,000  Level Boston Center
04:31PM 42.0722 -75.4719 93° East 551 634 45,000 -1,020 Level Boston Center
04:32PM 42.0731 -75.2764 90° East 545 627 43,000 -2,760 Descending Boston Center
04:33PM 42.0886 -75.0617 84° East 529 609 39,500 -3,300 Descending Boston Center
04:34PM 42.1097 -74.8636 82° East 529 609 36,400 -3,060 Descending Boston Center
04:35PM 42.1281 -74.6853 82° East 529 609 33,400 -3,180 Descending Boston Center
04:36PM 42.1464 -74.4842 83° East 536 617 30,100 -2,220 Descending Boston Center
04:37PM 42.1711 -74.2636 81° East 536 617 29,000 -600 Descending Boston Center
04:38PM 42.1886 -74.0653 83° East 536 617 29,000  Level Boston Center
04:39PM 42.2081 -73.8639 83° East 536 617 29,000 -1,020 Level Boston Center
04:40PM 42.2247 -73.6822 83° East 542 624 27,000 -2,520 Descending Boston Center
04:41PM 42.2433 -73.4947 82° East 529 609 24,000 -2,160 Descending Boston Center
04:42PM 42.2533 -73.3039 86° East 478 550 22,700 -1,860 Descending Boston Center
04:43PM 42.2275 -73.1297 101° East 467 537 20,300 -1,860 Descending Boston Center
04:44PM 42.1572 -72.9806 122° Southeast 452 520 19,000 -660 Descending Boston Center
04:45PM 42.0619 -72.8539 135° Southeast 464 534 19,000  Level Boston Center
04:46PM 41.9686 -72.7222 134° Southeast 470 541 19,000 -300 Level Boston Center
04:47PM 41.8833 -72.5850 130° Southeast 475 547 18,500 -1,500 Descending Boston Center
04:48PM 41.8147 -72.4622 127° Southeast 475 547 16,100 -2,520 Descending Boston Center
04:49PM 41.7314 -72.3178 128° Southeast 463 533 13,500 -2,520 Descending Boston Center
04:49PM 41.6978 -72.2511 124° Southeast 425 489 12,400 -2,340 Descending Boston Center
04:50PM 41.6644 -72.1900 126° Southeast 433 498 11,200 -960 Descending Boston Center
04:51PM 41.6142 -72.0986 126° Southeast 406 467 11,000 -660 Descending Boston Center
04:52PM 41.5056 -72.0492 161° South 353 406 9,900 -1,440 Descending Boston Center
04:53PM 41.4244 -72.0967 204° Southwest 308 354 8,200 -1,680 Descending Boston Center
04:53PM 41.4039 -72.1192 219° Southwest 332 382 7,800 -1,620 Descending Boston Center
04:54PM 41.3558 -72.1719 220° Southwest 313 360 6,600 -1,080 Descending Boston Center
04:55PM 41.2956 -72.2550 226° Southwest 318 366 6,000 -360 Descending Boston Center
04:56PM 41.2375 -72.3408 228° Southwest 323 372 5,900 -720 Descending Boston Center
04:57PM 41.1833 -72.4208 228° Southwest 312 359 4,600 -1,260 Descending Boston Center
04:58PM 41.1167 -72.4650 207° Southwest 278 320 3,400 -840 Descending Boston Center
04:59PM 41.0394 -72.4675 181° South 273 314 3,000 -240 Descending Boston Center
05:00PM 40.9728 -72.4758 185° South 256 295 3,000 -600 Level Boston Center
05:01PM 40.9250 -72.5281 220° Southwest 216 249 1,900 -1,020 Descending Boston Center
05:02PM 40.8853 -72.5800 225° Southwest 222 255 1,000 -900 Descending Boston Center
05:03PM 40.8561 -72.6131 221° Southwest 185 213 200 -480 Descending Boston Center
05:04PM 40.8414 -72.6322 225° Southwest 137 158 100 9,360 Descending Boston Center
05:05PM 40.8122 -72.6678 223° Southwest 137 158 19,000 9,420 Climbing Boston Center
05:06PM 40.7869 -72.7006 224° Southwest 137 158 19,000  Level Boston Center